বাংলা English Search

 Light to moderate rain/thunder showers accompanied by temporary gusty/squally wind is likely to occur at many places over Dhaka, Mymensingh, Barishal, Khulna, Chattogram & Sylhet divisions and at a few places over Rajshahi & Rangpur divisions with moderately heavy to heavy falls at places over the country. 

TAF

TAF VGHS 211700Z 2118/2224 21008KT 3500 HZ SCT012 BKN100 
BECMG 2121/2123 VRB03KT 3000 HZ 
TEMPO 2200/2210 24025KT 2000 TSRA/RA BKN008 FEW025CB OVC090 
BECMG 2212/2214 18008KT 3500 HZ SCT015 BKN100= 
  
TAF VGEG 211100Z 2112/2218 26012KT 3200 HZ SCT016 SCT100
 TEMPO 2122/2204 32020G30KT 1800 RA/TSRA SCT007 FEW025CB OVC090
 BECMG 2204/2206 24015KT 4000 HZ SCT016 SCT100=
 
TAF VGSY 211000Z 2112/2218 13005KT 3500 HZ SCT015 BKN100 
BECMG 2123/2201 05004KT 2500 BR SCT012 BKN100 
BECMG 2203/2205 09005KT 3000 HZ SCT015 
TEMPO 2112/2206 22020KT 2000 TSRA/RA BKN007 FEW025CB OVC090=